AirNav   Everest Fuels
 
 906 users online  

5GA7 Panacea Airport
Franklin/Glenn, Georgia, USA

GOING TO FRANKLIN/GLENN?


FAA INFORMATION EFFECTIVE 18 JUNE 2020

Location

FAA Identifier: 5GA7
Lat/Long: 33-12-06.4300N 085-13-49.8000W
33-12.107167N 085-13.830000W
33.2017861,-85.2305000
(estimated)
Elevation: 800 ft. / 244 m (estimated)
Variation: 01W (1985)
From city: 7 miles SW of central business district of the associated city
Time zone: UTC -4 (UTC -5 during Standard Time)
Zip code: 30217

Airport Operations

Airport use: Private use. Permission required prior to landing
Activation date: 01/1979
Control tower: no
ARTCC: ATLANTA CENTER
FSS: MACON FLIGHT SERVICE STATION
Attendance: UNATNDD
Wind indicator: yes
Segmented circle: no

Airport Communications

WX AWOS-3 at LGC (14 nm SE): 126.325 (706-845-0677)

Nearby radio navigation aids

VOR radial/distance  VOR name  Freq  Var
LGCr351/9.2LAGRANGE VORTAC115.6001E
CSGr342/36.8COLUMBUS VORTAC117.1001E

 
NDB name  Hdg/Dist  Freq  Var  ID
CARROLLTON197/22.427804WGPQ --. .--. --.-
COWETA COUNTY266/26.223403WEQQ . --.- --.-
PINE MOUNTAIN323/28.127203WPIM .--. .. --
PECAT266/37.831605WFFC ..-. ..-. -.-.

Airport Services

Runway Information

Runway 8/26

Dimensions: 2500 x 50 ft. / 762 x 15 m
Surface: turf
RUNWAY 8  RUNWAY 26
Traffic pattern: leftleft

Airport Ownership and Management from official FAA records

Ownership: Privately-owned
Owner: BENJAMIN F. PIKE, MD
2300 MANCHESTER EXPRESSWAY
COLUMBUS, GA 31904
Phone 404-323-3671
Manager: BENJAMIN F. PIKE, MD
2300 MANCHESTER EXPRESSWAY
COLUMBUS, GA 31904
Phone 404-323-3671

Additional Remarks

FOR CD CTC ATLANTA APCH AT 678-364-6132, WHEN APCH CLSD CTC ATLANTA ARTCC AT 770-210-7692.

Instrument Procedures

There are no published instrument procedures at 5GA7.

Some nearby airports with instrument procedures:

KLGC - LaGrange-Callaway Airport (14 nm SE)
7A3 - Lanett Municipal Airport (23 nm S)
KCCO - Newnan Coweta County Airport (24 nm E)
KCTJ - West Georgia Regional Airport-O V Gray Field (26 nm N)
KPIM - Harris County Airport (28 nm SE)
 
Loc | Ops | Rwys | IFR | FBO | Links
Com | Nav | Svcs | Stats | Notes
Area around 5GA7 (Panacea Airport)
 
Road maps at: MapQuest Bing Google
 
Aerial photo
No photo
 
Sectional chart

 
Airport distance calculator
Flying to Panacea Airport? Find the distance to fly.

From to 5GA7

Sunrise and sunset
Times for 05-Jul-2020
 Local
(UTC-4)
 Zulu
(UTC)
Morning civil twilight06:1010:10
Sunrise06:3910:39
Sunset20:5300:53
Evening civil twilight21:2101:21

Current date and time
Zulu (UTC)  05-Jul-2020 15:08:29
Local (UTC-4)  05-Jul-2020 11:08:29
 
METAR
KLGC 
15nm SE 
051455Z AUTO 00000KT 10SM CLR 29/22 A2998 RMK AO2 T02870219
KCCO 
24nm E 
051455Z AUTO 14006KT 10SM CLR 30/23 A3000 RMK AO2 T02970230
KCTJ 
26nm N 
051455Z AUTO 15005KT 7SM CLR 28/22 A3004 RMK AO2 T02770223
KPIM 
28nm SE 
051455Z AUTO 12006KT 10SM CLR 28/21 A3000 RMK AO2 LTG DSNT SE T02840212
TAF
KANB 
39nm NW 
051125Z 0512/0612 00000KT P6SM SCT120 FM051600 13005KT P6SM FEW040 FM051800 13006KT P6SM VCTS FEW045CB FM052100 10006KT P6SM SCT050 BKN060 PROB30 0521/0524 4SM TSRA BKN050CB FM060100 VRB04KT P6SM FEW060
KCSG 
43nm S 
051137Z 0512/0612 VRB03KT P6SM FEW060 SCT120 FM051400 11005KT P6SM SCT035 SCT100 FM051700 12007KT P6SM VCSH SCT040 BKN100 TEMPO 0519/0523 VRB15G25KT 3SM TSRA BKN030CB FM060200 13003KT P6SM VCSH SCT060 BKN120 FM060800 11003KT P6SM VCSH SCT006 BKN015 BKN100
KASN 
47nm NW 
051125Z 0512/0612 00000KT P6SM SCT120 FM051600 13005KT P6SM FEW040 FM051800 13006KT P6SM VCTS FEW045CB FM052100 10006KT P6SM SCT050 BKN060 PROB30 0521/0524 4SM TSRA BKN050CB FM060100 VRB04KT P6SM FEW060
KATL 
47nm NE 
051357Z 0514/0618 09004KT 6SM HZ SCT060 SCT120 FM051500 13006KT P6SM SCT040 SCT100 FM051800 11008KT P6SM VCSH SCT045 BKN100 TEMPO 0521/0524 VRB15G25KT 3SM TSRA BKN030CB FM060300 12004KT P6SM SCT060 BKN120 FM061000 09005KT P6SM VCSH SCT025 BKN100 FM061600 10008KT P6SM -SHRA BKN025 BKN100
NOTAMs
Click for the latest NOTAMs
NOTAMs are issued by the DoD/FAA and will open in a separate window not controlled by AirNav.

 

 
 

Would you like to see your business listed on this page?

 If your business provides an interesting product or service to pilots, flight crews, aircraft, or users of the Panacea Airport, you should consider listing it here.  To start the listing process, click on the button below
 
Add a business
 

Other Pages about Panacea Airport

Update a link
 
Copyright © AirNav, LLC. All rights reserved. Privacy Policy  Contact